^^
Your Local Weather - Clay, NY Station Historical Data
Daily Summary for March 28, 2017 Units:  English    Metric   Both
« Previous Day
Next Day »
Daily Weekly Monthly Yearly Custom
  High: Low: Average:
Temperature: 50.3 °F 38.3 °F 42.6 °F
Dew Point: 45.8 °F 35.0 °F 39.6 °F
Humidity: 93% 83% 89%
Wind Speed: 5.0mph 0.0mph 1.4mph
Wind Gust: 10.0mph - -
Wind- - West
Pressure: 30.08 in 29.84 in -
Precipitation: 0.00 in    
Historical Graphs
 
 
Tabular Data for March 28, 2017
Time Temperature Dew Point Pressure Wind Wind Speed Wind Gust Humidity Rainfall Rate (Hourly) solar
00:00 39.7 °F 36.7 °F 29.90 in Calm   3.0 mph 89% 0.00 in 0 W/m2
00:06 39.8 °F 36.8 °F 29.90 in Calm   3.0 mph 89% 0.00 in 0 W/m2
00:12 39.8 °F 37.1 °F 29.90 in Calm   1.0 mph 90% 0.00 in 0 W/m2
00:18 39.6 °F 36.6 °F 29.90 in NE 1.0 mph 3.0 mph 89% 0.00 in 0 W/m2
00:24 39.5 °F 36.5 °F 29.90 in NE 1.0 mph 1.0 mph 89% 0.00 in 0 W/m2
00:30 39.7 °F 37.0 °F 29.90 in Calm   2.0 mph 90% 0.00 in 0 W/m2
00:36 39.8 °F 37.1 °F 29.90 in Calm   2.0 mph 90% 0.00 in 0 W/m2
00:42 39.5 °F 36.5 °F 29.89 in Calm     89% 0.00 in 0 W/m2
00:48 39.8 °F 37.1 °F 29.90 in ENE 1.0 mph 1.0 mph 90% 0.00 in 0 W/m2
00:54 39.8 °F 37.1 °F 29.90 in Calm   1.0 mph 90% 0.00 in 0 W/m2
01:00 39.9 °F 37.2 °F 29.90 in Calm     90% 0.00 in 0 W/m2
01:06 40.0 °F 37.3 °F 29.90 in Calm     90% 0.00 in 0 W/m2
01:12 40.0 °F 37.0 °F 29.90 in Calm     89% 0.00 in 0 W/m2
01:18 39.9 °F 36.9 °F 29.90 in Calm     89% 0.00 in 0 W/m2
01:24 39.7 °F 36.7 °F 29.89 in Calm     89% 0.00 in 0 W/m2
01:30 39.5 °F 36.5 °F 29.90 in Calm   3.0 mph 89% 0.00 in 0 W/m2
01:36 39.7 °F 37.0 °F 29.89 in ENE 1.0 mph 3.0 mph 90% 0.00 in 0 W/m2
01:42 39.7 °F 37.0 °F 29.89 in ENE 1.0 mph 1.0 mph 90% 0.00 in 0 W/m2
01:48 39.7 °F 37.0 °F 29.89 in ENE 1.0 mph 1.0 mph 90% 0.00 in 0 W/m2
01:54 39.7 °F 37.0 °F 29.89 in ENE 1.0 mph 2.0 mph 90% 0.00 in 0 W/m2
02:00 39.7 °F 37.0 °F 29.89 in ENE 1.0 mph 1.0 mph 90% 0.00 in 0 W/m2
02:06 39.7 °F 37.0 °F 29.89 in Calm   1.0 mph 90% 0.00 in 0 W/m2
02:12 39.6 °F 36.6 °F 29.89 in Calm     89% 0.00 in 0 W/m2
02:18 39.3 °F 36.6 °F 29.89 in Calm   1.0 mph 90% 0.00 in 0 W/m2
02:24 39.2 °F 36.5 °F 29.89 in Calm   1.0 mph 90% 0.00 in 0 W/m2
02:30 39.3 °F 36.6 °F 29.88 in Calm   2.0 mph 90% 0.00 in 0 W/m2
02:36 39.2 °F 36.5 °F 29.88 in ENE 1.0 mph 2.0 mph 90% 0.00 in 0 W/m2
02:42 39.3 °F 36.6 °F 29.88 in Calm   2.0 mph 90% 0.00 in 0 W/m2
02:48 39.6 °F 36.9 °F 29.88 in Calm   2.0 mph 90% 0.00 in 0 W/m2
02:54 39.7 °F 37.0 °F 29.88 in Calm   1.0 mph 90% 0.00 in 0 W/m2
03:00 39.6 °F 36.9 °F 29.88 in Calm     90% 0.00 in 0 W/m2
03:06 39.3 °F 36.6 °F 29.87 in Calm     90% 0.00 in 0 W/m2
03:12 39.1 °F 36.4 °F 29.87 in Calm     90% 0.00 in 0 W/m2
03:18 39.1 °F 36.4 °F 29.87 in Calm     90% 0.00 in 0 W/m2
03:24 39.1 °F 36.4 °F 29.87 in Calm   1.0 mph 90% 0.00 in 0 W/m2
03:30 39.3 °F 36.9 °F 29.87 in Calm     91% 0.00 in 0 W/m2
03:36 39.5 °F 37.1 °F 29.87 in Calm     91% 0.00 in 0 W/m2
03:42 39.5 °F 37.1 °F 29.87 in Calm     91% 0.00 in 0 W/m2
03:48 39.3 °F 36.9 °F 29.86 in Calm   1.0 mph 91% 0.00 in 0 W/m2
03:54 39.4 °F 37.0 °F 29.86 in Calm     91% 0.00 in 0 W/m2
04:00 39.6 °F 37.2 °F 29.86 in Calm     91% 0.00 in 0 W/m2
04:06 39.4 °F 37.0 °F 29.86 in ENE 1.0 mph 1.0 mph 91% 0.00 in 0 W/m2
04:12 39.2 °F 36.8 °F 29.86 in ENE 1.0 mph 1.0 mph 91% 0.00 in 0 W/m2
04:18 39.6 °F 37.5 °F 29.86 in Calm   1.0 mph 92% 0.00 in 0 W/m2
04:24 39.6 °F 37.5 °F 29.86 in Calm   1.0 mph 92% 0.00 in 0 W/m2
04:30 39.6 °F 37.5 °F 29.85 in Calm     92% 0.00 in 0 W/m2
04:36 39.7 °F 37.6 °F 29.85 in ENE 1.0 mph 2.0 mph 92% 0.00 in 0 W/m2
04:42 39.8 °F 37.7 °F 29.85 in ENE 1.0 mph 1.0 mph 92% 0.00 in 0 W/m2
04:48 39.5 °F 37.4 °F 29.85 in ENE 1.0 mph 2.0 mph 92% 0.00 in 0 W/m2
04:54 38.9 °F 36.8 °F 29.85 in ENE 1.0 mph 2.0 mph 92% 0.00 in 0 W/m2
05:00 38.4 °F 36.0 °F 29.85 in ENE 1.0 mph 1.0 mph 91% 0.00 in 0 W/m2
05:06 38.3 °F 35.9 °F 29.85 in ENE 1.0 mph 1.0 mph 91% 0.00 in 0 W/m2
05:12 38.8 °F 36.7 °F 29.85 in Calm     92% 0.00 in 0 W/m2
05:18 39.1 °F 37.0 °F 29.84 in Calm     92% 0.00 in 0 W/m2
05:24 39.2 °F 37.1 °F 29.84 in Calm   1.0 mph 92% 0.00 in 0 W/m2
05:30 39.1 °F 37.0 °F 29.84 in Calm   2.0 mph 92% 0.00 in 0 W/m2
05:36 39.1 °F 37.0 °F 29.84 in Calm   2.0 mph 92% 0.00 in 0 W/m2
05:42 39.0 °F 36.9 °F 29.84 in Calm     92% 0.00 in 0 W/m2
05:48 39.3 °F 37.2 °F 29.84 in Calm     92% 0.00 in 0 W/m2
05:54 39.5 °F 37.6 °F 29.84 in Calm   1.0 mph 93% 0.00 in 0 W/m2
06:00 39.6 °F 37.7 °F 29.84 in Calm     93% 0.00 in 0 W/m2
06:06 39.4 °F 37.5 °F 29.84 in Calm     93% 0.00 in 0 W/m2
06:12 39.3 °F 37.2 °F 29.85 in Calm     92% 0.00 in 0 W/m2
06:18 39.2 °F 37.1 °F 29.85 in Calm     92% 0.00 in 0 W/m2
06:24 39.1 °F 37.0 °F 29.85 in Calm     92% 0.00 in 0 W/m2
06:30 39.0 °F 36.9 °F 29.85 in Calm     92% 0.00 in 0 W/m2
06:36 39.1 °F 37.0 °F 29.85 in Calm     92% 0.00 in 0 W/m2
06:42 39.4 °F 37.5 °F 29.85 in Calm     93% 0.00 in 0 W/m2
06:48 39.7 °F 37.8 °F 29.86 in Calm     93% 0.00 in 0 W/m2
06:54 39.8 °F 37.9 °F 29.86 in Calm     93% 0.00 in 0 W/m2
07:00 39.8 °F 37.9 °F 29.86 in Calm     93% 0.00 in 0 W/m2
07:06 39.9 °F 38.0 °F 29.86 in Calm     93% 0.00 in 0 W/m2
07:12 40.0 °F 38.1 °F 29.87 in Calm     93% 0.00 in 5 W/m2
07:18 40.0 °F 38.1 °F 29.87 in Calm     93% 0.00 in 11 W/m2
07:24 39.9 °F 38.0 °F 29.87 in Calm     93% 0.00 in 12 W/m2
07:30 40.3 °F 38.4 °F 29.87 in Calm     93% 0.00 in 14 W/m2
07:36 40.5 °F 38.6 °F 29.87 in Calm   1.0 mph 93% 0.00 in 19 W/m2
07:42 40.6 °F 38.7 °F 29.87 in Calm     93% 0.00 in 25 W/m2
07:48 40.7 °F 38.8 °F 29.87 in Calm     93% 0.00 in 23 W/m2
07:54 40.9 °F 39.0 °F 29.87 in Calm     93% 0.00 in 26 W/m2
08:00 40.8 °F 38.9 °F 29.87 in Calm     93% 0.00 in 44 W/m2
08:06 40.7 °F 38.8 °F 29.87 in Calm     93% 0.00 in 58 W/m2
08:12 41.0 °F 39.1 °F 29.88 in Calm     93% 0.00 in 69 W/m2
08:18 41.5 °F 39.6 °F 29.88 in Calm     93% 0.00 in 81 W/m2
08:24 41.7 °F 39.8 °F 29.88 in Calm     93% 0.00 in 84 W/m2
08:30 41.8 °F 39.9 °F 29.88 in Calm     93% 0.00 in 90 W/m2
08:36 42.0 °F 40.1 °F 29.88 in ENE 1.0 mph 2.0 mph 93% 0.00 in 98 W/m2
08:42 42.3 °F 40.4 °F 29.88 in ENE 1.0 mph 1.0 mph 93% 0.00 in 95 W/m2
08:48 42.5 °F 40.6 °F 29.88 in Calm   1.0 mph 93% 0.00 in 102 W/m2
08:54 42.7 °F 40.8 °F 29.88 in Calm     93% 0.00 in 98 W/m2
09:00 42.9 °F 40.7 °F 29.89 in Calm     92% 0.00 in 63 W/m2
09:06 43.0 °F 40.8 °F 29.89 in Calm     92% 0.00 in 65 W/m2
09:12 43.0 °F 40.8 °F 29.89 in Calm     92% 0.00 in 91 W/m2
09:18 43.2 °F 41.0 °F 29.89 in Calm     92% 0.00 in 86 W/m2
09:24 43.4 °F 40.9 °F 29.89 in Calm     91% 0.00 in 86 W/m2
09:30 43.5 °F 41.0 °F 29.89 in Calm     91% 0.00 in 88 W/m2
09:36 43.7 °F 41.2 °F 29.89 in Calm     91% 0.00 in 77 W/m2
09:44 43.9 °F 41.2 °F 29.89 in Calm     90% 0.00 in 86 W/m2
09:50 44.0 °F 41.3 °F 29.89 in Calm     90% 0.00 in 93 W/m2
09:56 44.2 °F 41.5 °F 29.89 in Calm     90% 0.00 in 105 W/m2
10:02 44.5 °F 41.7 °F 29.89 in Calm     90% 0.00 in 125 W/m2
10:08 44.7 °F 41.7 °F 29.89 in Calm   2.0 mph 89% 0.00 in 134 W/m2
10:14 44.9 °F 41.9 °F 29.89 in Calm     89% 0.00 in 137 W/m2
10:20 45.1 °F 41.8 °F 29.89 in Calm     88% 0.00 in 158 W/m2
10:26 45.3 °F 42.0 °F 29.89 in Calm     88% 0.00 in 171 W/m2
10:32 45.7 °F 42.3 °F 29.89 in ENE 1.0 mph 2.0 mph 88% 0.00 in 195 W/m2
10:38 46.0 °F 42.6 °F 29.89 in ENE 1.0 mph 2.0 mph 88% 0.00 in 332 W/m2
10:44 46.7 °F 43.0 °F 29.88 in Calm   1.0 mph 87% 0.00 in 473 W/m2
10:50 47.4 °F 43.7 °F 29.89 in East 1.0 mph 1.0 mph 87% 0.00 in 355 W/m2
10:56 47.8 °F 43.8 °F 29.89 in East 1.0 mph 2.0 mph 86% 0.00 in 338 W/m2
11:02 48.0 °F 43.7 °F 29.89 in East 1.0 mph 2.0 mph 85% 0.00 in 346 W/m2
11:08 48.8 °F 44.8 °F 29.89 in ESE 1.0 mph 3.0 mph 86% 0.00 in 355 W/m2
11:14 49.0 °F 44.7 °F 29.89 in Calm   1.0 mph 85% 0.00 in 330 W/m2
11:20 49.2 °F 44.6 °F 29.89 in SSW 1.0 mph 2.0 mph 84% 0.00 in 315 W/m2
11:26 49.3 °F 44.7 °F 29.89 in SSW 1.0 mph 2.0 mph 84% 0.00 in 243 W/m2
11:32 49.7 °F 45.1 °F 29.89 in SW 1.0 mph 3.0 mph 84% 0.00 in 248 W/m2
11:38 49.7 °F 44.7 °F 29.89 in WNW 1.0 mph 3.0 mph 83% 0.00 in 260 W/m2
11:44 49.7 °F 45.1 °F 29.89 in WNW 1.0 mph 1.0 mph 84% 0.00 in 318 W/m2
11:50 50.1 °F 45.5 °F 29.89 in NW 1.0 mph 1.0 mph 84% 0.00 in 290 W/m2
11:56 50.3 °F 45.6 °F 29.89 in NW 2.0 mph 2.0 mph 84% 0.00 in 204 W/m2
12:02 50.1 °F 45.1 °F 29.89 in NW 2.0 mph 2.0 mph 83% 0.00 in 158 W/m2
12:08 50.1 °F 45.5 °F 29.89 in NW 2.0 mph 2.0 mph 84% 0.00 in 162 W/m2
12:14 49.9 °F 45.3 °F 29.89 in NW 1.0 mph 3.0 mph 84% 0.00 in 181 W/m2
12:20 49.8 °F 45.5 °F 29.89 in NW 2.0 mph 3.0 mph 85% 0.00 in 167 W/m2
12:26 49.7 °F 45.4 °F 29.89 in NW 2.0 mph 3.0 mph 85% 0.00 in 153 W/m2
12:32 49.8 °F 45.8 °F 29.89 in NNW 2.0 mph 2.0 mph 86% 0.00 in 151 W/m2
12:38 49.6 °F 45.6 °F 29.89 in WNW 2.0 mph 3.0 mph 86% 0.00 in 132 W/m2
12:44 49.2 °F 45.2 °F 29.89 in WNW 3.0 mph 4.0 mph 86% 0.00 in 97 W/m2
12:50 49.0 °F 45.3 °F 29.89 in NNW 3.0 mph 5.0 mph 87% 0.00 in 79 W/m2
12:56 48.6 °F 44.9 °F 29.89 in NW 2.0 mph 5.0 mph 87% 0.00 in 67 W/m2
13:02 48.0 °F 44.6 °F 29.89 in NNW 3.0 mph 7.0 mph 88% 0.00 in 62 W/m2
13:08 47.7 °F 44.3 °F 29.89 in NNW 2.0 mph 7.0 mph 88% 0.00 in 77 W/m2
13:14 47.5 °F 44.4 °F 29.89 in NNW 2.0 mph 3.0 mph 89% 0.00 in 86 W/m2
13:20 47.5 °F 44.7 °F 29.89 in NNW 1.0 mph 1.0 mph 90% 0.00 in 84 W/m2
13:26 47.6 °F 44.8 °F 29.89 in Calm   2.0 mph 90% 0.00 in 91 W/m2
13:32 47.6 °F 44.8 °F 29.89 in NNW 1.0 mph 1.0 mph 90% 0.00 in 84 W/m2
13:38 47.6 °F 44.8 °F 29.89 in Calm   1.0 mph 90% 0.00 in 90 W/m2
13:44 47.6 °F 44.8 °F 29.89 in NNW 1.0 mph 3.0 mph 90% 0.00 in 100 W/m2
13:50 47.6 °F 44.8 °F 29.89 in NNW 2.0 mph 2.0 mph 90% 0.00 in 118 W/m2
13:56 47.6 °F 44.8 °F 29.89 in WNW 2.0 mph 4.0 mph 90% 0.00 in 127 W/m2
14:02 47.6 °F 45.1 °F 29.89 in WNW 2.0 mph 3.0 mph 91% 0.00 in 123 W/m2
14:08 47.3 °F 44.8 °F 29.89 in WNW 2.0 mph 3.0 mph 91% 0.00 in 142 W/m2
14:14 47.3 °F 44.8 °F 29.89 in NW 3.0 mph 5.0 mph 91% 0.00 in 167 W/m2
14:20 47.4 °F 44.9 °F 29.89 in NW 3.0 mph 4.0 mph 91% 0.00 in 163 W/m2
14:26 47.5 °F 45.0 °F 29.89 in NNW 3.0 mph 4.0 mph 91% 0.00 in 141 W/m2
14:32 47.4 °F 44.9 °F 29.89 in NNW 3.0 mph 3.0 mph 91% 0.00 in 160 W/m2
14:38 47.3 °F 44.8 °F 29.89 in WNW 2.0 mph 4.0 mph 91% 0.00 in 134 W/m2
14:46 47.2 °F 44.7 °F 29.89 in WNW 2.0 mph 2.0 mph 91% 0.00 in 109 W/m2
14:52 46.9 °F 44.4 °F 29.89 in NW 2.0 mph 3.0 mph 91% 0.00 in 111 W/m2
14:58 46.8 °F 44.3 °F 29.89 in NW 2.0 mph 3.0 mph 91% 0.00 in 116 W/m2
15:04 46.5 °F 44.0 °F 29.89 in NW 2.0 mph 2.0 mph 91% 0.00 in 105 W/m2
15:10 46.4 °F 43.9 °F 29.89 in NW 2.0 mph 3.0 mph 91% 0.00 in 100 W/m2
15:16 46.2 °F 43.7 °F 29.90 in NW 2.0 mph 3.0 mph 91% 0.00 in 120 W/m2
15:22 46.2 °F 43.7 °F 29.90 in WNW 2.0 mph 2.0 mph 91% 0.00 in 111 W/m2
15:28 46.2 °F 43.7 °F 29.90 in WNW 2.0 mph 2.0 mph 91% 0.00 in 105 W/m2
15:34 46.3 °F 43.8 °F 29.90 in WNW 1.0 mph 2.0 mph 91% 0.00 in 104 W/m2
15:40 46.2 °F 43.7 °F 29.90 in WNW 1.0 mph 2.0 mph 91% 0.00 in 90 W/m2
15:46 46.1 °F 43.6 °F 29.90 in WNW 1.0 mph 2.0 mph 91% 0.00 in 111 W/m2
15:52 46.2 °F 43.7 °F 29.90 in WNW 1.0 mph 2.0 mph 91% 0.00 in 125 W/m2
15:58 46.0 °F 43.5 °F 29.90 in NW 2.0 mph 6.0 mph 91% 0.00 in 111 W/m2
16:04 45.9 °F 43.4 °F 29.90 in WNW 2.0 mph 2.0 mph 91% 0.00 in 86 W/m2
16:10 45.7 °F 42.9 °F 29.91 in WNW 2.0 mph 3.0 mph 90% 0.00 in 86 W/m2
16:16 45.5 °F 42.7 °F 29.91 in WNW 3.0 mph 3.0 mph 90% 0.00 in 93 W/m2
16:22 45.4 °F 42.6 °F 29.91 in WNW 3.0 mph 3.0 mph 90% 0.00 in 88 W/m2
16:28 45.3 °F 42.2 °F 29.91 in NW 3.0 mph 4.0 mph 89% 0.00 in 84 W/m2
16:34 45.3 °F 42.2 °F 29.92 in NW 2.0 mph 3.0 mph 89% 0.00 in 79 W/m2
16:40 45.2 °F 42.2 °F 29.92 in NNW 3.0 mph 3.0 mph 89% 0.00 in 100 W/m2
16:46 45.1 °F 42.1 °F 29.92 in NW 3.0 mph 5.0 mph 89% 0.00 in 100 W/m2
16:52 45.0 °F 42.0 °F 29.92 in WNW 3.0 mph 3.0 mph 89% 0.00 in 70 W/m2
16:58 44.6 °F 41.6 °F 29.92 in NW 2.0 mph 4.0 mph 89% 0.00 in 53 W/m2
17:04 44.1 °F 41.1 °F 29.92 in NW 3.0 mph 5.0 mph 89% 0.00 in 47 W/m2
17:10 43.7 °F 41.0 °F 29.92 in NW 3.0 mph 3.0 mph 90% 0.00 in 39 W/m2
17:16 43.5 °F 40.8 °F 29.93 in NW 3.0 mph 3.0 mph 90% 0.00 in 62 W/m2
17:22 43.4 °F 40.7 °F 29.93 in NW 3.0 mph 3.0 mph 90% 0.00 in 44 W/m2
17:28 43.4 °F 40.7 °F 29.93 in NW 3.0 mph 3.0 mph 90% 0.00 in 49 W/m2
17:34 43.3 °F 40.6 °F 29.93 in NW 2.0 mph 3.0 mph 90% 0.00 in 49 W/m2
17:40 43.2 °F 40.5 °F 29.93 in NNW 2.0 mph 3.0 mph 90% 0.00 in 54 W/m2
17:46 43.1 °F 40.4 °F 29.94 in NW 2.0 mph 3.0 mph 90% 0.00 in 39 W/m2
17:52 43.1 °F 40.1 °F 29.94 in NW 2.0 mph 2.0 mph 89% 0.00 in 32 W/m2
17:58 43.0 °F 40.0 °F 29.94 in NW 2.0 mph 2.0 mph 89% 0.00 in 35 W/m2
18:04 42.9 °F 39.6 °F 29.95 in WNW 2.0 mph 4.0 mph 88% 0.00 in 25 W/m2
18:10 42.7 °F 39.4 °F 29.95 in WNW 3.0 mph 3.0 mph 88% 0.00 in 23 W/m2
18:16 42.6 °F 39.3 °F 29.95 in NW 3.0 mph 4.0 mph 88% 0.00 in 33 W/m2
18:22 42.6 °F 39.6 °F 29.95 in NNW 2.0 mph 2.0 mph 89% 0.00 in 42 W/m2
18:28 42.5 °F 39.2 °F 29.96 in WNW 2.0 mph 8.0 mph 88% 0.00 in 35 W/m2
18:34 42.4 °F 39.1 °F 29.96 in WNW 3.0 mph 5.0 mph 88% 0.00 in 26 W/m2
18:40 42.3 °F 39.0 °F 29.97 in WNW 3.0 mph 5.0 mph 88% 0.00 in 21 W/m2
18:46 42.3 °F 39.0 °F 29.97 in West 2.0 mph 5.0 mph 88% 0.00 in 16 W/m2
18:52 42.3 °F 39.0 °F 29.97 in NW 2.0 mph 2.0 mph 88% 0.00 in 11 W/m2
18:58 42.2 °F 38.9 °F 29.97 in WNW 2.0 mph 3.0 mph 88% 0.00 in 7 W/m2
19:04 42.1 °F 38.8 °F 29.97 in WNW 2.0 mph 4.0 mph 88% 0.00 in 5 W/m2
19:10 42.0 °F 38.7 °F 29.98 in NW 3.0 mph 3.0 mph 88% 0.00 in 0 W/m2
19:16 41.9 °F 38.6 °F 29.98 in NW 2.0 mph 4.0 mph 88% 0.00 in 0 W/m2
19:22 41.8 °F 38.5 °F 29.98 in NW 3.0 mph 7.0 mph 88% 0.00 in 0 W/m2
19:28 41.7 °F 38.4 °F 29.98 in WNW 3.0 mph 7.0 mph 88% 0.00 in 0 W/m2
19:34 41.7 °F 38.4 °F 29.99 in NW 3.0 mph 4.0 mph 88% 0.00 in 0 W/m2
19:40 41.5 °F 38.2 °F 29.99 in NW 4.0 mph 4.0 mph 88% 0.00 in 0 W/m2
19:46 41.4 °F 38.1 °F 30.00 in NNW 4.0 mph 5.0 mph 88% 0.00 in 0 W/m2
19:52 41.3 °F 38.3 °F 30.00 in NW 4.0 mph 5.0 mph 89% 0.00 in 0 W/m2
19:58 41.1 °F 38.1 °F 30.00 in NNW 5.0 mph 8.0 mph 89% 0.00 in 0 W/m2
20:04 41.1 °F 38.1 °F 30.01 in WNW 5.0 mph 10.0 mph 89% 0.00 in 0 W/m2
20:10 41.0 °F 38.0 °F 30.01 in NNW 5.0 mph 5.0 mph 89% 0.00 in 0 W/m2
20:16 40.8 °F 37.8 °F 30.01 in NNW 4.0 mph 5.0 mph 89% 0.00 in 0 W/m2
20:22 40.7 °F 37.7 °F 30.01 in NNE 5.0 mph 8.0 mph 89% 0.00 in 0 W/m2
20:28 40.7 °F 37.7 °F 30.02 in North 5.0 mph 9.0 mph 89% 0.00 in 0 W/m2
20:34 40.7 °F 37.7 °F 30.03 in North 5.0 mph 5.0 mph 89% 0.00 in 0 W/m2
20:40 40.7 °F 37.7 °F 30.03 in NW 4.0 mph 4.0 mph 89% 0.00 in 0 W/m2
20:46 40.8 °F 37.8 °F 30.03 in NW 4.0 mph 5.0 mph 89% 0.00 in 0 W/m2
20:52 40.7 °F 37.4 °F 30.04 in NNW 3.0 mph 5.0 mph 88% 0.00 in 0 W/m2
20:58 40.7 °F 37.4 °F 30.04 in NW 4.0 mph 5.0 mph 88% 0.00 in 0 W/m2
21:04 40.6 °F 37.3 °F 30.04 in NW 4.0 mph 4.0 mph 88% 0.00 in 0 W/m2
21:10 40.6 °F 37.3 °F 30.05 in NNW 4.0 mph 5.0 mph 88% 0.00 in 0 W/m2
21:16 40.5 °F 36.9 °F 30.05 in North 5.0 mph 6.0 mph 87% 0.00 in 0 W/m2
21:22 40.5 °F 36.9 °F 30.05 in NNW 5.0 mph 5.0 mph 87% 0.00 in 0 W/m2
21:28 40.4 °F 36.8 °F 30.06 in NW 5.0 mph 5.0 mph 87% 0.00 in 0 W/m2
21:34 40.4 °F 36.5 °F 30.06 in North 4.0 mph 4.0 mph 86% 0.00 in 0 W/m2
21:40 40.4 °F 36.5 °F 30.06 in North 3.0 mph 3.0 mph 86% 0.00 in 0 W/m2
21:46 40.4 °F 36.2 °F 30.06 in NW 4.0 mph 7.0 mph 85% 0.00 in 0 W/m2
21:52 40.4 °F 36.2 °F 30.06 in NNW 4.0 mph 4.0 mph 85% 0.00 in 0 W/m2
21:58 40.4 °F 35.9 °F 30.06 in North 4.0 mph 4.0 mph 84% 0.00 in 0 W/m2
22:04 40.4 °F 35.9 °F 30.06 in NNW 4.0 mph 7.0 mph 84% 0.00 in 0 W/m2
22:10 40.4 °F 35.9 °F 30.06 in NW 4.0 mph 4.0 mph 84% 0.00 in 0 W/m2
22:16 40.4 °F 35.9 °F 30.07 in North 5.0 mph 6.0 mph 84% 0.00 in 0 W/m2
22:22 40.4 °F 35.9 °F 30.07 in North 5.0 mph 9.0 mph 84% 0.00 in 0 W/m2
22:28 40.4 °F 35.6 °F 30.06 in North 5.0 mph 9.0 mph 83% 0.00 in 0 W/m2
22:34 40.4 °F 35.6 °F 30.07 in NNW 4.0 mph 5.0 mph 83% 0.00 in 0 W/m2
22:40 40.4 °F 35.6 °F 30.06 in NNW 3.0 mph 4.0 mph 83% 0.00 in 0 W/m2
22:46 40.3 °F 35.5 °F 30.07 in NNW 3.0 mph 4.0 mph 83% 0.00 in 0 W/m2
22:52 40.3 °F 35.5 °F 30.06 in NNW 1.0 mph 2.0 mph 83% 0.00 in 0 W/m2
22:58 40.2 °F 35.4 °F 30.06 in NNW 1.0 mph 2.0 mph 83% 0.00 in 0 W/m2
23:04 40.0 °F 35.3 °F 30.07 in NNW 1.0 mph 1.0 mph 83% 0.00 in 0 W/m2
23:10 39.8 °F 35.4 °F 30.07 in Calm     84% 0.00 in 0 W/m2
23:16 39.7 °F 35.3 °F 30.08 in Calm   1.0 mph 84% 0.00 in 0 W/m2
23:22 39.6 °F 35.5 °F 30.08 in Calm     85% 0.00 in 0 W/m2
23:28 39.6 °F 35.5 °F 30.07 in Calm   2.0 mph 85% 0.00 in 0 W/m2
23:34 39.6 °F 35.2 °F 30.08 in NNW 1.0 mph 2.0 mph 84% 0.00 in 0 W/m2
23:40 39.5 °F 35.1 °F 30.07 in NNW 1.0 mph 2.0 mph 84% 0.00 in 0 W/m2
23:46 39.4 °F 35.0 °F 30.08 in NNW 1.0 mph 2.0 mph 84% 0.00 in 0 W/m2
23:52 39.4 °F 35.3 °F 30.08 in Calm     85% 0.00 in 0 W/m2
23:58 39.3 °F 35.2 °F 30.08 in Calm   3.0 mph 85% 0.00 in 0 W/m2
Country Meadow, Clay, NY, USA
Compliments of Weather Underground - 2 mb